Terminal Aerodrome Forecast
Issued by NWS

Home | Current Version | Previous Version | Text Only | Print | Product List | Glossary On
Versions: 1 2 3 4 5 6 7 8 9 10 11 12 13 14 15 16 17 18 19 20 21 22 23 24 25 26 27 28 29 30 31 32 33 34 35 36 37 38 39 40 41 42 43 44
000
FTAK31 PANC 041736
TAFADU
TAF
PADU 041736Z 0418/0518 22009KT P6SM -SHRA OVC040
      TEMPO 0418/0420 6SM -SHRASN BKN015 OVC025
     FM042000 20015KT 6SM -SHRASN BKN015 OVC025
     FM050000 33018G30KT 5SM -SHSN BKN025
     FM050400 33015G25KT P6SM VCSH SCT008 BKN025 OVC040=

USA.gov is the U.S. government's official web portal to all federal, state and local government web resources and services.